Pagina principale
METAR-TAF:

METAR-TAF

Aeroporti :

Aeroporto di Grosseto

Grosseto, Italia

latitudine: 42-45N, longitudine: 011-04E, altezza: 5 m

Osservazione

Il bollettino è stato emesso 24 minuti fa, alle 04:55 UTC
Vento 2 kt da nord-est
Temperature 5°C
Umidità 93%
Pressione 1011 hPa
Visibilità 10 km o più
nessuna nube inferiore a 1500 m e nessun cumulonembo

METAR: LIRS 300455Z 05002KT CAVOK 05/04 Q1011

Ora: 07:19 (05:19 UTC)

Previsione

Il bollettino è stato emesso 3 ore e 19 minuti fa, alle 02:00 UTC
Previsione valida dal 30 alle 03 UTC al 30 alle 12 UTC
Vento 3 kt da direzioni variabili
Visibilità 10 km o più
nessuna nube inferiore a 1500 m e nessun cumulonembo
Evoluzione graduale
dal 30 alle 03 UTC al 30 alle 05 UTC
Visibilità 10 km o più
Nubi sparse ad un'altezza di 6000 ft

TAF: LIRS 300200Z 3003/3012 VRB03KT CAVOK BECMG 3003/3005 9999 SCT060

Osservazioni e previsioni meteorologiche di più di 4000 aeroporti (messaggi METAR e TAF).

Le stazioni disponibili sono rappresentate dai dischi gialli e rossi sulla carta.

Puntare il mouse per vedere il nome della stazione.

Clicca sopra per visualizzare le osservazioni e previsioni meteorologiche.

Per cambiare la mappa : fare clic sui pulsanti verdi con una croce nera per ingrandire, il pulsante verde con un trattino per diminuire, o sulla freccia verde per le mappe adiacenti.


METAR-TAF: